Time;durP1;ratioP1;P1;durP2;ratioP2;P2;SDS_P1;SDS_P2;PMS_P1;PMS_P2;Temp;Humidity;BMP_temperature;BMP_pressure;BME280_temperature;BME280_humidity;BME280_pressure;Samples;Min_cycle;Max_cycle;Signal;HPM_P1;HPM_P2
2021/03/12 00:01:12;;;;;;;4.68;0.88;;;6.60;98.90;;;;;;4996894;28;20057;-82
2021/03/12 00:03:38;;;;;;;5.68;0.82;;;6.60;98.90;;;;;;5013321;28;20098;-84
2021/03/12 00:06:10;;;;;;;7.10;1.45;;;6.50;98.90;;;;;;5030323;28;20033;-82
2021/03/12 00:08:41;;;;;;;4.22;1.50;;;6.50;98.90;;;;;;5029246;28;20029;-83
2021/03/12 00:11:08;;;;;;;4.38;1.20;;;6.50;99.00;;;;;;5030769;28;20017;-83
2021/03/12 00:13:35;;;;;;;6.65;1.00;;;6.50;99.00;;;;;;5029497;28;20132;-80
2021/03/12 00:16:02;;;;;;;6.28;0.90;;;6.40;99.00;;;;;;5013053;28;20025;-83
2021/03/12 00:18:38;;;;;;;2.70;0.98;;;6.40;99.00;;;;;;5029097;28;20033;-81
2021/03/12 00:21:04;;;;;;;4.38;1.00;;;6.30;99.00;;;;;;5029336;28;20053;-83
2021/03/12 00:23:30;;;;;;;3.80;1.13;;;6.30;99.00;;;;;;4996598;28;20033;-81
2021/03/12 00:25:57;;;;;;;2.72;0.90;;;6.20;99.00;;;;;;5029278;28;20100;-82
2021/03/12 00:28:22;;;;;;;4.13;0.95;;;6.20;99.10;;;;;;5028388;28;20480;-79
2021/03/12 00:30:49;;;;;;;2.67;1.08;;;6.10;99.10;;;;;;5029492;28;20079;-82
2021/03/12 00:33:16;;;;;;;3.78;0.70;;;6.10;99.30;;;;;;5028868;28;20068;-83
2021/03/12 00:35:43;;;;;;;4.97;1.00;;;6.10;99.40;;;;;;5029730;28;20026;-83
2021/03/12 00:38:10;;;;;;;4.57;1.98;;;6.10;99.40;;;;;;5028798;28;20397;-84
2021/03/12 00:40:58;;;;;;;2.85;0.75;;;6.10;99.40;;;;;;5029847;28;20518;-82
2021/03/12 00:43:24;;;;;;;3.50;1.77;;;6.10;99.40;;;;;;5028987;28;20037;-84
2021/03/12 00:46:02;;;;;;;12.60;1.98;;;6.10;99.40;;;;;;5029106;28;20488;-84
2021/03/12 00:48:28;;;;;;;4.40;0.90;;;6.10;99.50;;;;;;5029855;28;20040;-82
2021/03/12 00:50:54;;;;;;;7.32;1.35;;;6.20;99.60;;;;;;5028479;28;20031;-82
2021/03/12 00:53:20;;;;;;;9.93;1.48;;;6.20;99.50;;;;;;5012241;28;20045;-82
2021/03/12 00:55:47;;;;;;;4.53;1.00;;;6.20;99.50;;;;;;5028294;28;20109;-81
2021/03/12 00:58:13;;;;;;;8.40;2.05;;;6.10;99.50;;;;;;5012666;28;20025;-82
2021/03/12 01:00:39;;;;;;;7.18;1.45;;;6.10;99.70;;;;;;5028623;28;20029;-84
2021/03/12 01:03:06;;;;;;;8.55;1.15;;;6.10;99.80;;;;;;5012952;28;20036;-81
2021/03/12 01:05:32;;;;;;;9.15;2.00;;;6.10;99.90;;;;;;5028833;28;20076;-85
2021/03/12 01:07:58;;;;;;;6.32;1.38;;;6.00;99.80;;;;;;5012100;28;20036;-81
2021/03/12 01:10:25;;;;;;;8.10;1.55;;;6.00;99.90;;;;;;5031645;28;20034;-81
2021/03/12 01:12:52;;;;;;;10.07;1.40;;;6.00;99.90;;;;;;5032471;28;20087;-82
2021/03/12 01:15:20;;;;;;;4.15;1.40;;;6.00;99.90;;;;;;5015900;28;20029;-80
2021/03/12 01:17:46;;;;;;;2.95;0.85;;;6.00;99.90;;;;;;5031942;28;20030;-84
2021/03/12 01:20:25;;;;;;;3.90;1.33;;;6.00;99.80;;;;;;5034210;28;20036;-84
2021/03/12 01:22:54;;;;;;;1.65;0.63;;;6.00;99.80;;;;;;5032611;28;20022;-81
2021/03/12 01:25:21;;;;;;;4.55;1.08;;;6.00;99.90;;;;;;5033671;28;20034;-83
2021/03/12 01:27:47;;;;;;;3.67;1.00;;;6.00;99.80;;;;;;5016307;28;20442;-82
2021/03/12 01:30:16;;;;;;;4.40;1.30;;;6.00;99.80;;;;;;5032402;28;20033;-82
2021/03/12 01:32:42;;;;;;;3.38;0.77;;;6.00;99.80;;;;;;5032982;28;20052;-83
2021/03/12 01:35:09;;;;;;;3.78;0.85;;;6.00;99.80;;;;;;5033065;28;20116;-81
2021/03/12 01:37:34;;;;;;;4.35;0.98;;;6.00;99.90;;;;;;4999271;28;20029;-82
2021/03/12 01:40:00;;;;;;;5.93;1.48;;;6.00;99.80;;;;;;5033152;28;20032;-84
2021/03/12 01:42:26;;;;;;;12.45;2.75;;;6.00;99.80;;;;;;5032354;28;20037;-80
2021/03/12 01:44:53;;;;;;;4.85;1.25;;;6.00;99.80;;;;;;5030390;28;20033;-81
2021/03/12 01:47:19;;;;;;;6.93;1.67;;;6.00;99.90;;;;;;5030450;28;20423;-83
2021/03/12 01:49:44;;;;;;;10.30;1.55;;;6.00;99.90;;;;;;5030218;28;20025;-80
2021/03/12 01:52:10;;;;;;;7.15;1.83;;;6.00;99.90;;;;;;5030570;28;20124;-85
2021/03/12 01:54:36;;;;;;;7.53;2.53;;;6.00;99.90;;;;;;5030590;28;20076;-84
2021/03/12 01:57:04;;;;;;;9.77;2.00;;;6.00;99.90;;;;;;5030678;28;20026;-81
2021/03/12 01:59:29;;;;;;;6.97;1.50;;;6.00;99.90;;;;;;5014352;28;20476;-84
2021/03/12 02:01:55;;;;;;;8.52;1.67;;;6.00;99.90;;;;;;5029993;28;20144;-83
2021/03/12 02:04:21;;;;;;;8.20;1.20;;;6.10;99.90;;;;;;5013680;28;20056;-83
2021/03/12 02:06:47;;;;;;;2.97;0.90;;;6.10;99.90;;;;;;5013892;28;20029;-83
2021/03/12 02:09:13;;;;;;;7.47;1.42;;;6.00;99.90;;;;;;4997502;28;20129;-81
2021/03/12 02:11:44;;;;;;;9.73;1.88;;;6.00;99.90;;;;;;5014158;28;20045;-83
2021/03/12 02:14:36;;;;;;;6.72;1.38;;;6.00;99.90;;;;;;5031347;28;20123;-84
2021/03/12 02:17:10;;;;;;;5.93;1.33;;;5.90;99.90;;;;;;5029773;28;20121;-83
2021/03/12 02:20:12;;;;;;;9.13;1.55;;;6.00;99.90;;;;;;5029768;28;20373;-81
2021/03/12 02:22:42;;;;;;;10.10;1.45;;;6.00;99.90;;;;;;5026563;28;20471;-83
2021/03/12 02:25:13;;;;;;;7.07;1.48;;;6.00;99.90;;;;;;5030945;28;20396;-80
2021/03/12 02:27:41;;;;;;;8.00;2.08;;;6.00;99.90;;;;;;5030547;28;20018;-82
2021/03/12 02:30:08;;;;;;;6.05;1.55;;;6.00;99.90;;;;;;5030494;28;20029;-82
2021/03/12 02:32:37;;;;;;;10.52;1.58;;;6.00;99.90;;;;;;5029240;28;20045;-83
2021/03/12 02:35:08;;;;;;;9.93;2.03;;;6.10;99.90;;;;;;5030457;28;20072;-84
2021/03/12 02:37:35;;;;;;;6.30;1.33;;;6.10;99.90;;;;;;5030447;28;20087;-83
2021/03/12 02:40:03;;;;;;;8.98;1.50;;;6.10;99.90;;;;;;5029655;28;20067;-83
2021/03/12 02:42:29;;;;;;;9.50;1.60;;;6.20;99.90;;;;;;5029672;28;20018;-83
2021/03/12 02:44:59;;;;;;;10.63;1.88;;;6.20;99.90;;;;;;5031260;28;20029;-82
2021/03/12 02:47:31;;;;;;;6.20;1.65;;;6.20;99.90;;;;;;5030776;28;20025;-83
2021/03/12 02:49:57;;;;;;;6.50;2.47;;;6.20;99.90;;;;;;5012680;28;20456;-82
2021/03/12 02:52:24;;;;;;;9.18;1.85;;;6.20;99.90;;;;;;5012511;28;20392;-85
2021/03/12 02:54:50;;;;;;;13.85;1.50;;;6.20;99.90;;;;;;5030325;28;20076;-84
2021/03/12 02:57:18;;;;;;;7.72;1.20;;;6.20;99.90;;;;;;5012529;28;20031;-80
2021/03/12 02:59:45;;;;;;;8.32;1.23;;;6.20;99.90;;;;;;5029583;28;20295;-80
2021/03/12 03:02:12;;;;;;;6.70;1.65;;;6.30;99.90;;;;;;5030324;28;20395;-83
2021/03/12 03:04:40;;;;;;;5.28;1.38;;;6.30;99.90;;;;;;5012404;28;20029;-82
2021/03/12 03:07:07;;;;;;;9.00;1.50;;;6.30;99.90;;;;;;5029064;28;20419;-81
2021/03/12 03:09:35;;;;;;;7.22;1.90;;;6.40;99.90;;;;;;5029052;28;20037;-82
2021/03/12 03:12:01;;;;;;;6.30;1.20;;;6.40;99.90;;;;;;5013159;28;20091;-80
2021/03/12 03:14:30;;;;;;;5.40;1.20;;;6.50;99.90;;;;;;5012683;28;20479;-82
2021/03/12 03:16:57;;;;;;;9.43;2.00;;;6.50;99.90;;;;;;5028555;28;20053;-84
2021/03/12 03:19:24;;;;;;;7.00;2.08;;;6.60;99.90;;;;;;5012267;28;20037;-84
2021/03/12 03:21:50;;;;;;;6.82;1.27;;;6.60;99.90;;;;;;5028789;28;20427;-84
2021/03/12 03:24:15;;;;;;;6.30;1.25;;;6.60;99.90;;;;;;5030236;28;20041;-83
2021/03/12 03:26:41;;;;;;;6.45;1.15;;;6.60;99.90;;;;;;5012150;28;20086;-83
2021/03/12 03:29:07;;;;;;;3.90;0.82;;;6.60;99.90;;;;;;5029568;28;20025;-83
2021/03/12 03:31:33;;;;;;;3.55;0.90;;;6.60;99.90;;;;;;5012016;28;20120;-83
2021/03/12 03:33:59;;;;;;;2.53;0.60;;;6.60;99.90;;;;;;5028979;28;20564;-80
2021/03/12 03:36:25;;;;;;;4.15;0.85;;;6.70;99.90;;;;;;5012087;28;20087;-84
2021/03/12 03:38:51;;;;;;;2.75;0.88;;;6.60;99.90;;;;;;5012762;28;20052;-84
2021/03/12 03:41:18;;;;;;;4.32;0.90;;;6.70;99.90;;;;;;5012295;28;20041;-83
2021/03/12 03:43:50;;;;;;;3.17;0.80;;;6.70;99.90;;;;;;5011959;28;20356;-83
2021/03/12 03:46:17;;;;;;;7.22;0.80;;;6.70;99.90;;;;;;5029081;28;20029;-81
2021/03/12 03:48:43;;;;;;;3.53;0.50;;;6.70;99.90;;;;;;5028868;28;20036;-84
2021/03/12 03:51:15;;;;;;;1.40;0.50;;;6.70;99.90;;;;;;5012352;28;20029;-83
2021/03/12 03:53:41;;;;;;;3.47;0.63;;;6.70;99.90;;;;;;5028239;28;20088;-82
2021/03/12 03:56:10;;;;;;;3.25;1.40;;;6.70;99.90;;;;;;5028014;28;20129;-80
2021/03/12 03:58:37;;;;;;;5.13;0.90;;;6.60;99.90;;;;;;5028417;28;20431;-81
2021/03/12 04:01:04;;;;;;;4.47;0.70;;;6.60;99.90;;;;;;5027696;28;20029;-83
2021/03/12 04:03:30;;;;;;;4.47;0.60;;;6.60;99.90;;;;;;5011683;28;20495;-84
2021/03/12 04:05:57;;;;;;;3.67;0.80;;;6.50;99.90;;;;;;5029738;28;20040;-82
2021/03/12 04:08:24;;;;;;;3.72;0.60;;;6.50;99.90;;;;;;5029678;28;20025;-81
2021/03/12 04:10:55;;;;;;;5.38;0.73;;;6.50;99.90;;;;;;5028649;28;20033;-85
2021/03/12 04:13:21;;;;;;;2.88;0.90;;;6.50;99.90;;;;;;5029288;28;20109;-81
2021/03/12 04:15:47;;;;;;;2.65;0.45;;;6.50;99.90;;;;;;5028498;28;20053;-80
2021/03/12 04:18:14;;;;;;;1.48;0.50;;;6.50;99.90;;;;;;5011723;28;20498;-82
2021/03/12 04:20:41;;;;;;;3.92;0.93;;;6.40;99.90;;;;;;5027955;28;20375;-83
2021/03/12 04:23:07;;;;;;;3.40;0.73;;;6.40;99.90;;;;;;5028156;28;20041;-82
2021/03/12 04:25:33;;;;;;;3.83;0.57;;;6.40;99.90;;;;;;5011016;28;20030;-83
2021/03/12 04:28:02;;;;;;;2.72;0.40;;;6.40;99.90;;;;;;5027456;28;20079;-82
2021/03/12 04:30:29;;;;;;;4.45;0.28;;;6.30;99.90;;;;;;5029066;28;20049;-82
2021/03/12 04:32:55;;;;;;;1.00;0.30;;;6.00;99.90;;;;;;5029400;28;20057;-84
2021/03/12 04:35:21;;;;;;;1.35;0.45;;;5.70;99.90;;;;;;5028799;28;20072;-82
2021/03/12 04:37:47;;;;;;;0.22;0.20;;;5.50;99.90;;;;;;5011661;28;20057;-83
2021/03/12 04:40:14;;;;;;;0.30;0.13;;;5.30;99.90;;;;;;5012605;28;20034;-82
2021/03/12 04:42:43;;;;;;;0.00;0.00;;;5.10;99.90;;;;;;5029960;28;20116;-83
2021/03/12 04:45:10;;;;;;;1.17;0.97;;;4.90;99.90;;;;;;5028572;28;20484;-81
2021/03/12 04:47:36;;;;;;;0.30;0.10;;;4.80;99.90;;;;;;5013254;28;20280;-82
2021/03/12 04:50:08;;;;;;;0.13;0.03;;;4.60;99.90;;;;;;5030964;28;20044;-81
2021/03/12 04:52:35;;;;;;;0.20;0.05;;;4.60;99.90;;;;;;5029165;28;20472;-84
2021/03/12 04:55:01;;;;;;;2.20;0.47;;;4.50;99.90;;;;;;4995921;28;20088;-83
2021/03/12 04:57:27;;;;;;;0.15;0.10;;;4.50;99.90;;;;;;5012359;28;20480;-81
2021/03/12 04:59:57;;;;;;;0.32;0.20;;;4.60;99.90;;;;;;5030203;28;20101;-83
2021/03/12 05:02:23;;;;;;;0.63;0.20;;;4.60;99.90;;;;;;5028738;28;20426;-84
2021/03/12 05:04:50;;;;;;;0.10;0.10;;;4.60;99.90;;;;;;5012574;28;20056;-82
2021/03/12 05:07:20;;;;;;;0.35;0.20;;;4.70;99.90;;;;;;5028224;28;20108;-85
2021/03/12 05:09:46;;;;;;;;;;;4.60;99.90;;;;;;5028665;28;20035;-85
2021/03/12 05:12:12;;;;;;;0.43;0.20;;;4.70;99.90;;;;;;5011983;28;19909;-83
2021/03/12 05:14:38;;;;;;;0.43;0.30;;;4.70;99.90;;;;;;4995028;28;20424;-83
2021/03/12 05:17:03;;;;;;;0.38;0.20;;;4.60;99.90;;;;;;5029132;28;20030;-81
2021/03/12 05:19:29;;;;;;;1.10;0.20;;;4.60;99.90;;;;;;5011755;28;20030;-84
2021/03/12 05:21:56;;;;;;;1.17;0.20;;;4.60;99.90;;;;;;5027940;28;20041;-84
2021/03/12 05:24:22;;;;;;;0.10;0.08;;;4.50;99.90;;;;;;5027734;28;20033;-84
2021/03/12 05:26:48;;;;;;;1.35;0.28;;;4.40;99.90;;;;;;5027630;28;20034;-83
2021/03/12 05:29:14;;;;;;;2.80;0.30;;;4.30;99.90;;;;;;5028083;28;20044;-81
2021/03/12 05:31:39;;;;;;;0.30;0.20;;;4.20;99.90;;;;;;5011581;28;20495;-83
2021/03/12 05:34:05;;;;;;;0.70;0.15;;;4.20;99.90;;;;;;5011428;28;20042;-84
2021/03/12 05:36:31;;;;;;;0.28;0.13;;;4.20;99.90;;;;;;5027827;28;20116;-83
2021/03/12 05:38:56;;;;;;;0.65;0.20;;;4.10;99.90;;;;;;5010767;28;20028;-83
2021/03/12 05:41:23;;;;;;;0.20;0.20;;;4.00;99.90;;;;;;5027591;28;20033;-83
2021/03/12 05:43:49;;;;;;;0.50;0.20;;;4.00;99.90;;;;;;5027602;28;20384;-82
2021/03/12 05:46:15;;;;;;;2.15;0.28;;;3.90;99.90;;;;;;5028263;28;20026;-82
2021/03/12 05:48:44;;;;;;;1.10;0.40;;;3.90;99.90;;;;;;5027978;28;20033;-82
2021/03/12 05:51:11;;;;;;;2.10;0.80;;;3.90;99.90;;;;;;5029803;28;20029;-83
2021/03/12 05:53:37;;;;;;;1.05;0.50;;;3.90;99.90;;;;;;5029389;28;20491;-84
2021/03/12 05:56:03;;;;;;;1.33;0.50;;;3.90;99.90;;;;;;4997632;28;20040;-83
2021/03/12 05:58:28;;;;;;;0.98;0.30;;;3.80;99.90;;;;;;5031981;28;20025;-83
2021/03/12 06:00:55;;;;;;;3.45;0.50;;;3.90;99.90;;;;;;5015215;28;20159;-83
2021/03/12 06:03:20;;;;;;;2.60;0.50;;;3.90;99.90;;;;;;5032159;28;20073;-82
2021/03/12 06:05:49;;;;;;;1.45;0.50;;;3.90;99.90;;;;;;5032051;28;20026;-81
2021/03/12 06:08:15;;;;;;;1.77;0.60;;;3.90;99.90;;;;;;5031544;28;20056;-83
2021/03/12 06:10:41;;;;;;;2.65;0.65;;;3.90;99.90;;;;;;5015746;28;20033;-84
2021/03/12 06:13:06;;;;;;;3.05;0.68;;;3.90;99.90;;;;;;5031482;28;20029;-82
2021/03/12 06:15:37;;;;;;;2.63;0.47;;;4.00;99.90;;;;;;4998702;28;20033;-83
2021/03/12 06:18:16;;;;;;;5.32;0.85;;;4.00;99.90;;;;;;5031343;28;20030;-83
2021/03/12 06:20:43;;;;;;;3.08;0.70;;;4.10;99.90;;;;;;5031121;28;20247;-82
2021/03/12 06:23:09;;;;;;;1.55;0.45;;;4.10;99.90;;;;;;5014731;28;20029;-85
2021/03/12 06:25:35;;;;;;;3.63;0.82;;;4.10;99.90;;;;;;4999483;28;20029;-84
2021/03/12 06:28:20;;;;;;;2.72;0.85;;;4.20;99.90;;;;;;5032198;28;20371;-83
2021/03/12 06:30:46;;;;;;;6.80;0.50;;;4.20;99.90;;;;;;5032728;28;20056;-82
2021/03/12 06:33:26;;;;;;;0.70;0.35;;;4.20;99.90;;;;;;5031011;28;20088;-85
2021/03/12 06:35:52;;;;;;;3.42;0.60;;;4.20;99.90;;;;;;5031997;28;20029;-84
2021/03/12 06:38:18;;;;;;;2.13;0.63;;;4.20;99.90;;;;;;5014638;28;20025;-84
2021/03/12 06:40:44;;;;;;;1.95;0.47;;;4.20;99.90;;;;;;5031507;28;20088;-84
2021/03/12 06:43:13;;;;;;;5.05;0.50;;;4.20;99.90;;;;;;5013913;28;20021;-83
2021/03/12 06:45:41;;;;;;;3.63;0.95;;;4.20;99.90;;;;;;5030150;28;20079;-83
2021/03/12 06:48:32;;;;;;;3.45;0.70;;;4.20;99.90;;;;;;5029595;28;20021;-82
2021/03/12 06:51:02;;;;;;;4.30;0.63;;;4.30;99.90;;;;;;5030806;28;20083;-82
2021/03/12 06:53:42;;;;;;;5.93;1.00;;;4.30;99.90;;;;;;5029832;28;20032;-86
2021/03/12 06:56:13;;;;;;;2.97;0.88;;;4.30;99.90;;;;;;5012974;28;20060;-84
2021/03/12 06:58:56;;;;;;;3.72;0.65;;;4.30;99.90;;;;;;5029622;28;20396;-84
2021/03/12 07:01:22;;;;;;;3.90;0.90;;;4.30;99.90;;;;;;5015212;28;20075;-84
2021/03/12 07:04:06;;;;;;;3.38;0.50;;;4.30;99.90;;;;;;4996928;28;20053;-84
2021/03/12 07:06:46;;;;;;;2.47;0.40;;;4.50;99.90;;;;;;5030195;28;20021;-84
2021/03/12 07:09:12;;;;;;;9.25;0.80;;;4.60;99.90;;;;;;5030638;28;20025;-83
2021/03/12 07:11:38;;;;;;;2.95;0.95;;;4.70;99.90;;;;;;5029235;28;20583;-83
2021/03/12 07:14:04;;;;;;;5.93;0.90;;;4.70;99.90;;;;;;5030529;28;20029;-83
2021/03/12 07:16:30;;;;;;;2.30;0.70;;;4.80;99.90;;;;;;5029348;28;20021;-82
2021/03/12 07:18:56;;;;;;;12.90;1.08;;;4.70;99.90;;;;;;5028606;28;20057;-84
2021/03/12 07:21:25;;;;;;;11.32;1.40;;;4.80;99.90;;;;;;5029078;28;20033;-84
2021/03/12 07:23:58;;;;;;;;;;;4.80;99.90;;;;;;5029007;28;20068;-85
2021/03/12 07:26:25;;;;;;;7.05;1.20;;;4.80;99.90;;;;;;5028725;28;19955;-83
2021/03/12 07:28:58;;;;;;;3.75;1.02;;;4.80;99.90;;;;;;5028686;28;20021;-82
2021/03/12 07:31:31;;;;;;;5.88;1.77;;;4.80;99.90;;;;;;5029135;28;20025;-83
2021/03/12 07:33:59;;;;;;;6.05;0.90;;;4.90;99.90;;;;;;5030948;28;20087;-81
2021/03/12 07:36:26;;;;;;;5.65;0.95;;;4.90;99.90;;;;;;5030443;28;20041;-82
2021/03/12 07:38:56;;;;;;;6.15;1.15;;;5.00;99.90;;;;;;5012449;28;20192;-82
2021/03/12 07:41:21;;;;;;;6.70;1.00;;;5.10;99.90;;;;;;5028638;28;20028;-84
2021/03/12 07:43:49;;;;;;;4.28;1.48;;;5.20;99.90;;;;;;5012012;28;20331;-82
2021/03/12 07:46:16;;;;;;;5.72;1.23;;;5.40;99.90;;;;;;5028469;28;20034;-83
2021/03/12 07:48:42;;;;;;;4.00;2.20;;;5.60;99.90;;;;;;5028579;28;20415;-84
2021/03/12 07:51:13;;;;;;;3.50;1.30;;;5.90;99.90;;;;;;5012234;28;20029;-85
2021/03/12 07:53:54;;;;;;;6.45;1.10;;;6.10;99.90;;;;;;5029342;28;20038;-83
2021/03/12 07:56:45;;;;;;;7.47;1.40;;;6.40;99.90;;;;;;5029243;28;20531;-84
2021/03/12 07:59:11;;;;;;;9.48;1.40;;;6.70;99.90;;;;;;5027694;28;20292;-83
2021/03/12 08:02:11;;;;;;;10.45;1.40;;;6.80;99.90;;;;;;5029139;28;20377;-73
2021/03/12 08:04:38;;;;;;;7.90;1.60;;;6.80;99.90;;;;;;4997908;28;20037;-83
2021/03/12 08:07:21;;;;;;;8.35;1.45;;;6.70;99.90;;;;;;5010414;28;20025;-85
2021/03/12 08:09:54;;;;;;;5.78;1.92;;;6.60;99.90;;;;;;5028204;28;20464;-83
2021/03/12 08:12:42;;;;;;;6.75;1.20;;;6.50;99.90;;;;;;5028672;28;20444;-85
2021/03/12 08:15:20;;;;;;;7.03;1.15;;;6.50;99.90;;;;;;5028401;28;20022;-83
2021/03/12 08:18:09;;;;;;;7.82;1.30;;;6.70;99.90;;;;;;5027846;28;20376;-86
2021/03/12 08:20:43;;;;;;;4.38;0.95;;;7.20;99.90;;;;;;5021747;28;20029;-84
2021/03/12 08:23:14;;;;;;;6.40;0.98;;;7.70;99.90;;;;;;5012456;28;20033;-85
2021/03/12 08:25:40;;;;;;;7.70;1.63;;;8.10;99.90;;;;;;5028544;28;20040;-81
2021/03/12 08:28:11;;;;;;;6.13;1.73;;;8.40;99.90;;;;;;5028525;28;20132;-84
2021/03/12 08:30:40;;;;;;;6.70;1.60;;;8.90;99.90;;;;;;5028307;28;20511;-84
2021/03/12 08:33:21;;;;;;;3.83;0.90;;;9.40;99.90;;;;;;5028179;28;20084;-84
2021/03/12 08:35:48;;;;;;;8.02;2.20;;;9.80;99.00;;;;;;5029061;28;20057;-86
2021/03/12 08:38:24;;;;;;;6.45;1.38;;;10.10;98.50;;;;;;5027925;28;20358;-85
2021/03/12 08:41:21;;;;;;;5.97;1.25;;;10.50;98.10;;;;;;5028721;28;20376;-85
2021/03/12 08:43:50;;;;;;;13.75;2.35;;;11.20;97.60;;;;;;5024470;28;20033;-85
2021/03/12 08:46:22;;;;;;;9.02;2.20;;;11.70;96.90;;;;;;5026935;28;20076;-82
2021/03/12 08:48:48;;;;;;;6.88;1.75;;;12.00;95.90;;;;;;5027091;28;20033;-84
2021/03/12 08:51:18;;;;;;;7.30;1.70;;;12.60;95.30;;;;;;5028587;28;20025;-82
2021/03/12 08:53:48;;;;;;;;;;;13.00;93.90;;;;;;5010779;28;20033;-84
2021/03/12 08:56:21;;;;;;;9.50;1.67;;;13.40;93.70;;;;;;5027229;28;19956;-86
2021/03/12 08:58:47;;;;;;;6.72;1.80;;;13.90;93.00;;;;;;5029348;28;20026;-82
2021/03/12 09:01:21;;;;;;;9.80;2.47;;;14.20;91.80;;;;;;5028897;28;20070;-81
2021/03/12 09:03:58;;;;;;;6.93;1.75;;;14.30;90.70;;;;;;5029749;28;20026;-84
2021/03/12 09:06:36;;;;;;;9.70;1.75;;;14.00;89.60;;;;;;5027177;28;20135;-81
2021/03/12 09:09:07;;;;;;;15.98;2.22;;;13.90;89.30;;;;;;5027256;28;20112;-84
2021/03/12 09:11:33;;;;;;;10.40;1.90;;;13.30;86.30;;;;;;5028585;28;20032;-82
2021/03/12 09:14:00;;;;;;;7.30;1.60;;;13.00;88.50;;;;;;5027553;28;20061;-84
2021/03/12 09:16:28;;;;;;;6.07;1.27;;;12.70;88.00;;;;;;4993843;28;20033;-84
2021/03/12 09:18:55;;;;;;;8.35;1.92;;;12.30;87.10;;;;;;5027948;28;20492;-84
2021/03/12 09:21:25;;;;;;;6.93;1.67;;;11.90;87.40;;;;;;5010846;28;20034;-81
2021/03/12 09:23:59;;;;;;;10.98;1.95;;;11.90;89.30;;;;;;5027779;28;20444;-84
2021/03/12 09:26:32;;;;;;;7.10;2.13;;;12.50;90.60;;;;;;5010886;28;20044;-83
2021/03/12 09:29:04;;;;;;;7.53;1.70;;;13.20;90.20;;;;;;5027378;28;20376;-84
2021/03/12 09:31:37;;;;;;;9.85;2.20;;;13.90;88.80;;;;;;5029435;28;20025;-83
2021/03/12 09:34:05;;;;;;;6.55;1.73;;;14.60;86.00;;;;;;5030177;28;20060;-82
2021/03/12 09:36:42;;;;;;;4.75;1.33;;;15.20;85.80;;;;;;5030962;28;20045;-83
2021/03/12 09:39:13;;;;;;;7.68;2.60;;;16.00;83.00;;;;;;5031022;28;20045;-81
2021/03/12 09:41:41;;;;;;;5.65;1.50;;;16.60;80.70;;;;;;5031574;28;20119;-86
2021/03/12 09:44:08;;;;;;;4.93;1.55;;;17.00;79.40;;;;;;5030852;28;20021;-83
2021/03/12 09:47:09;;;;;;;9.73;1.73;;;17.50;79.80;;;;;;5029559;28;20109;-85
2021/03/12 09:49:39;;;;;;;7.15;2.00;;;18.30;77.90;;;;;;5017182;28;20451;-83
2021/03/12 09:52:09;;;;;;;;;;;18.70;74.40;;;;;;5030558;28;20029;-83
2021/03/12 09:54:35;;;;;;;8.32;1.98;;;18.80;73.60;;;;;;5029957;28;20004;-85
2021/03/12 09:57:02;;;;;;;7.60;1.90;;;19.00;71.10;;;;;;5031094;28;20077;-83
2021/03/12 09:59:30;;;;;;;12.50;2.53;;;18.90;68.50;;;;;;5030722;28;20025;-81
2021/03/12 10:02:22;;;;;;;10.75;2.55;;;18.80;67.10;;;;;;5030673;28;20021;-82
2021/03/12 10:04:59;;;;;;;6.93;2.20;;;18.50;66.40;;;;;;5012111;28;20520;-82
2021/03/12 10:07:36;;;;;;;12.13;2.67;;;18.00;64.80;;;;;;5029792;28;20029;-81
2021/03/12 10:10:16;;;;;;;9.45;2.08;;;17.10;64.30;;;;;;5029417;28;20395;-83
2021/03/12 10:12:44;;;;;;;11.88;2.90;;;16.00;65.40;;;;;;5029967;28;20040;-80
2021/03/12 10:15:19;;;;;;;16.15;2.85;;;15.20;66.80;;;;;;4996996;28;20104;-83
2021/03/12 10:17:46;;;;;;;14.43;3.72;;;14.80;68.30;;;;;;5029385;28;20022;-84
2021/03/12 10:20:26;;;;;;;11.48;3.50;;;14.90;70.30;;;;;;5029250;28;20030;-86
2021/03/12 10:23:05;;;;;;;;;;;15.10;70.30;;;;;;5029201;28;20029;-83
2021/03/12 10:25:39;;;;;;;16.00;2.80;;;15.60;71.60;;;;;;5028845;28;19905;-85
2021/03/12 10:28:18;;;;;;;13.82;3.53;;;16.40;71.00;;;;;;5029220;28;20033;-84
2021/03/12 10:30:50;;;;;;;11.80;2.53;;;16.70;69.20;;;;;;5029498;28;20035;-85
2021/03/12 10:33:20;;;;;;;15.95;3.33;;;16.70;68.00;;;;;;5028737;28;20068;-85
2021/03/12 10:35:59;;;;;;;16.17;3.85;;;16.60;68.50;;;;;;5030148;28;20029;-84
2021/03/12 10:38:33;;;;;;;9.38;1.75;;;17.10;68.80;;;;;;5030401;28;20079;-86
2021/03/12 10:41:17;;;;;;;9.07;2.03;;;17.20;66.20;;;;;;5012101;28;20029;-86
2021/03/12 10:43:42;;;;;;;6.72;1.92;;;16.80;64.70;;;;;;5029011;28;20025;-84
2021/03/12 10:46:10;;;;;;;13.80;2.10;;;16.50;65.40;;;;;;4996569;28;20029;-82
2021/03/12 10:48:47;;;;;;;6.20;1.15;;;16.10;63.30;;;;;;5030452;28;20376;-86
2021/03/12 10:51:15;;;;;;;22.02;2.63;;;16.00;64.20;;;;;;5029963;28;20114;-84
2021/03/12 10:53:56;;;;;;;6.30;1.50;;;16.20;64.20;;;;;;5012665;28;20030;-82
2021/03/12 10:56:23;;;;;;;5.53;1.20;;;16.40;64.50;;;;;;5029995;28;20097;-83
2021/03/12 10:58:50;;;;;;;10.05;1.90;;;16.90;65.30;;;;;;5028562;28;20042;-85
2021/03/12 11:01:30;;;;;;;11.10;2.00;;;17.10;63.60;;;;;;5028977;28;20108;-81
2021/03/12 11:03:58;;;;;;;;;;;17.00;62.70;;;;;;5030828;28;20071;-83
2021/03/12 11:06:29;;;;;;;11.85;2.20;;;17.40;64.90;;;;;;5028570;28;19949;-84
2021/03/12 11:08:54;;;;;;;8.38;2.10;;;18.20;64.00;;;;;;5030452;28;20021;-84
2021/03/12 11:11:21;;;;;;;9.18;2.10;;;18.50;61.00;;;;;;5011466;28;20029;-86
2021/03/12 11:13:49;;;;;;;9.15;2.17;;;18.20;59.60;;;;;;5027295;28;20087;-84
2021/03/12 11:16:14;;;;;;;8.80;2.20;;;17.80;58.40;;;;;;5030430;28;20426;-85
2021/03/12 11:18:41;;;;;;;11.10;2.10;;;17.20;58.90;;;;;;5013057;28;20025;-83
2021/03/12 11:21:08;;;;;;;14.90;2.47;;;17.00;59.10;;;;;;5030881;28;20511;-83
2021/03/12 11:23:35;;;;;;;13.30;2.05;;;16.70;59.40;;;;;;5028814;28;20125;-85
2021/03/12 11:26:01;;;;;;;11.43;2.50;;;16.60;60.30;;;;;;5029762;28;20033;-85
2021/03/12 11:28:27;;;;;;;11.73;2.33;;;16.60;60.70;;;;;;5011700;28;20029;-84
2021/03/12 11:30:54;;;;;;;9.43;2.70;;;16.90;61.00;;;;;;5011568;28;20029;-82
2021/03/12 11:33:20;;;;;;;9.77;2.15;;;17.10;60.20;;;;;;5028792;28;20088;-86
2021/03/12 11:35:46;;;;;;;10.00;2.40;;;17.20;60.00;;;;;;5029110;28;20100;-85
2021/03/12 11:38:12;;;;;;;17.58;2.88;;;16.90;58.60;;;;;;5027721;28;20116;-84
2021/03/12 11:40:38;;;;;;;9.02;2.25;;;16.70;59.80;;;;;;5011207;28;20032;-83
2021/03/12 11:43:07;;;;;;;12.93;3.13;;;16.80;59.90;;;;;;5027751;28;20112;-85
2021/03/12 11:45:35;;;;;;;11.13;2.85;;;17.00;59.90;;;;;;5011174;28;20511;-83
2021/03/12 11:48:02;;;;;;;16.67;2.97;;;17.20;59.70;;;;;;5027747;28;20034;-88
2021/03/12 11:50:29;;;;;;;6.22;1.83;;;17.60;60.20;;;;;;5029580;28;20037;-85
2021/03/12 11:52:55;;;;;;;11.20;3.10;;;18.10;58.90;;;;;;5027681;28;20036;-83
2021/03/12 11:55:22;;;;;;;9.90;2.40;;;17.80;57.30;;;;;;5027508;28;20075;-85
2021/03/12 11:57:47;;;;;;;14.60;3.03;;;17.20;56.60;;;;;;5011300;28;20400;-82
2021/03/12 12:00:15;;;;;;;9.00;3.00;;;16.40;56.60;;;;;;5012499;28;20030;-85
2021/03/12 12:02:41;;;;;;;16.60;3.95;;;15.80;57.80;;;;;;5028221;28;20056;-83
2021/03/12 12:05:09;;;;;;;7.65;2.08;;;15.70;58.60;;;;;;5029036;28;20554;-85
2021/03/12 12:07:36;;;;;;;5.40;1.23;;;15.90;60.10;;;;;;5012528;28;20056;-84
2021/03/12 12:10:03;;;;;;;6.07;1.20;;;16.20;58.90;;;;;;5027613;28;20427;-86
2021/03/12 12:12:29;;;;;;;5.32;1.25;;;16.40;58.60;;;;;;5011583;28;20120;-84
2021/03/12 12:14:54;;;;;;;6.10;2.00;;;16.30;57.90;;;;;;5027604;28;20176;-82
2021/03/12 12:17:20;;;;;;;5.75;1.42;;;16.10;58.50;;;;;;5027643;28;20029;-84
2021/03/12 12:19:46;;;;;;;3.30;0.73;;;16.60;60.20;;;;;;5028430;28;20028;-86
2021/03/12 12:22:16;;;;;;;1.58;0.75;;;17.00;59.20;;;;;;5027044;28;20061;-86
2021/03/12 12:24:43;;;;;;;2.80;0.65;;;17.20;58.00;;;;;;5027422;28;20069;-84
2021/03/12 12:27:10;;;;;;;3.75;0.90;;;17.10;56.90;;;;;;5026920;28;20412;-84
2021/03/12 12:29:36;;;;;;;2.30;0.68;;;16.60;57.40;;;;;;5026997;28;20026;-86
2021/03/12 12:32:02;;;;;;;2.92;1.15;;;16.40;58.20;;;;;;5028378;28;20033;-83
2021/03/12 12:34:28;;;;;;;8.75;1.83;;;16.40;59.80;;;;;;5029340;28;20495;-85
2021/03/12 12:36:55;;;;;;;5.70;1.10;;;16.80;60.40;;;;;;5011296;28;20049;-85
2021/03/12 12:39:22;;;;;;;2.97;1.13;;;17.20;59.30;;;;;;5027999;28;20037;-86
2021/03/12 12:41:48;;;;;;;2.60;1.02;;;17.20;58.30;;;;;;5027297;28;20032;-87
2021/03/12 12:44:15;;;;;;;3.03;1.10;;;17.00;58.00;;;;;;5010359;28;20468;-83
2021/03/12 12:46:42;;;;;;;2.30;0.85;;;16.80;57.90;;;;;;5010776;28;20044;-86
2021/03/12 12:49:10;;;;;;;2.80;0.90;;;16.60;57.80;;;;;;5011627;28;20033;-85
2021/03/12 12:51:37;;;;;;;5.97;1.73;;;16.30;58.20;;;;;;5027939;28;20099;-85
2021/03/12 12:54:03;;;;;;;3.88;1.58;;;16.00;58.40;;;;;;5028066;28;20060;-86
2021/03/12 12:56:29;;;;;;;10.32;1.95;;;15.50;58.50;;;;;;4995084;28;20136;-84
2021/03/12 12:58:55;;;;;;;7.70;1.70;;;15.00;58.80;;;;;;5010244;28;20483;-83
2021/03/12 13:01:21;;;;;;;7.13;1.40;;;14.60;59.50;;;;;;4992716;28;20029;-84
2021/03/12 13:03:47;;;;;;;13.77;1.67;;;14.20;60.20;;;;;;5026286;28;20505;-86